sensor_id;sensor_type;location;lat;lon;timestamp;temperature;humidity
13892;DHT22;7016;48.172;8.058;2024-01-27T00:01:32;6.30;99.90
13892;DHT22;7016;48.172;8.058;2024-01-27T00:04:19;5.90;99.90
13892;DHT22;7016;48.172;8.058;2024-01-27T00:07:05;5.90;99.90
13892;DHT22;7016;48.172;8.058;2024-01-27T00:09:51;5.80;99.90
13892;DHT22;7016;48.172;8.058;2024-01-27T00:12:37;5.90;99.90
13892;DHT22;7016;48.172;8.058;2024-01-27T00:15:23;5.70;99.90
13892;DHT22;7016;48.172;8.058;2024-01-27T00:18:10;5.80;99.90
13892;DHT22;7016;48.172;8.058;2024-01-27T00:20:56;6.00;99.90
13892;DHT22;7016;48.172;8.058;2024-01-27T00:23:43;6.00;99.90
13892;DHT22;7016;48.172;8.058;2024-01-27T00:26:29;5.70;99.90
13892;DHT22;7016;48.172;8.058;2024-01-27T00:29:15;5.60;99.90
13892;DHT22;7016;48.172;8.058;2024-01-27T00:32:02;5.60;99.90
13892;DHT22;7016;48.172;8.058;2024-01-27T00:34:48;5.60;99.90
13892;DHT22;7016;48.172;8.058;2024-01-27T00:37:34;5.70;99.90
13892;DHT22;7016;48.172;8.058;2024-01-27T00:40:20;5.80;99.90
13892;DHT22;7016;48.172;8.058;2024-01-27T00:43:07;5.90;99.90
13892;DHT22;7016;48.172;8.058;2024-01-27T00:45:53;5.70;99.90
13892;DHT22;7016;48.172;8.058;2024-01-27T00:48:39;5.50;99.90
13892;DHT22;7016;48.172;8.058;2024-01-27T00:51:25;5.30;99.90
13892;DHT22;7016;48.172;8.058;2024-01-27T00:54:11;5.10;99.90
13892;DHT22;7016;48.172;8.058;2024-01-27T00:56:58;5.10;99.90
13892;DHT22;7016;48.172;8.058;2024-01-27T00:59:44;5.10;99.90
13892;DHT22;7016;48.172;8.058;2024-01-27T01:02:30;5.30;99.90
13892;DHT22;7016;48.172;8.058;2024-01-27T01:05:16;5.20;99.90
13892;DHT22;7016;48.172;8.058;2024-01-27T01:08:03;5.20;99.90
13892;DHT22;7016;48.172;8.058;2024-01-27T01:10:49;5.30;99.90
13892;DHT22;7016;48.172;8.058;2024-01-27T01:13:35;5.50;99.90
13892;DHT22;7016;48.172;8.058;2024-01-27T01:16:21;5.40;99.90
13892;DHT22;7016;48.172;8.058;2024-01-27T01:19:08;5.40;99.90
13892;DHT22;7016;48.172;8.058;2024-01-27T01:21:54;5.30;99.90
13892;DHT22;7016;48.172;8.058;2024-01-27T01:24:40;5.10;99.90
13892;DHT22;7016;48.172;8.058;2024-01-27T01:27:26;5.10;99.90
13892;DHT22;7016;48.172;8.058;2024-01-27T01:30:12;5.20;99.90
13892;DHT22;7016;48.172;8.058;2024-01-27T01:32:59;5.30;99.90
13892;DHT22;7016;48.172;8.058;2024-01-27T01:35:45;5.30;99.90
13892;DHT22;7016;48.172;8.058;2024-01-27T01:38:31;5.30;99.90
13892;DHT22;7016;48.172;8.058;2024-01-27T01:41:17;5.20;99.90
13892;DHT22;7016;48.172;8.058;2024-01-27T01:44:04;5.10;99.90
13892;DHT22;7016;48.172;8.058;2024-01-27T01:46:50;5.10;99.90
13892;DHT22;7016;48.172;8.058;2024-01-27T01:49:37;5.20;99.90
13892;DHT22;7016;48.172;8.058;2024-01-27T01:52:23;5.00;99.90
13892;DHT22;7016;48.172;8.058;2024-01-27T01:55:09;4.90;99.90
13892;DHT22;7016;48.172;8.058;2024-01-27T01:57:56;4.90;99.90
13892;DHT22;7016;48.172;8.058;2024-01-27T02:00:42;4.90;99.90
13892;DHT22;7016;48.172;8.058;2024-01-27T02:03:28;5.00;99.90
13892;DHT22;7016;48.172;8.058;2024-01-27T02:06:14;5.00;99.90
13892;DHT22;7016;48.172;8.058;2024-01-27T02:09:00;4.90;99.90
13892;DHT22;7016;48.172;8.058;2024-01-27T02:11:47;4.80;99.90
13892;DHT22;7016;48.172;8.058;2024-01-27T02:14:33;4.60;99.90
13892;DHT22;7016;48.172;8.058;2024-01-27T02:17:19;4.60;99.90
13892;DHT22;7016;48.172;8.058;2024-01-27T02:20:06;4.60;99.90
13892;DHT22;7016;48.172;8.058;2024-01-27T02:22:53;4.60;99.90
13892;DHT22;7016;48.172;8.058;2024-01-27T02:25:39;4.60;99.90
13892;DHT22;7016;48.172;8.058;2024-01-27T02:28:25;4.60;99.90
13892;DHT22;7016;48.172;8.058;2024-01-27T02:31:11;4.60;99.90
13892;DHT22;7016;48.172;8.058;2024-01-27T02:33:57;4.50;99.90
13892;DHT22;7016;48.172;8.058;2024-01-27T02:36:44;4.10;99.90
13892;DHT22;7016;48.172;8.058;2024-01-27T02:39:30;4.30;99.90
13892;DHT22;7016;48.172;8.058;2024-01-27T02:42:16;4.40;99.90
13892;DHT22;7016;48.172;8.058;2024-01-27T02:45:03;4.50;99.90
13892;DHT22;7016;48.172;8.058;2024-01-27T02:47:49;4.50;99.90
13892;DHT22;7016;48.172;8.058;2024-01-27T02:50:35;4.50;99.90
13892;DHT22;7016;48.172;8.058;2024-01-27T02:53:22;4.60;99.90
13892;DHT22;7016;48.172;8.058;2024-01-27T02:56:08;4.40;99.90
13892;DHT22;7016;48.172;8.058;2024-01-27T02:58:54;4.40;99.90
13892;DHT22;7016;48.172;8.058;2024-01-27T03:01:40;4.50;99.90
13892;DHT22;7016;48.172;8.058;2024-01-27T03:04:27;4.50;99.90
13892;DHT22;7016;48.172;8.058;2024-01-27T03:07:13;4.40;99.90
13892;DHT22;7016;48.172;8.058;2024-01-27T03:09:59;4.60;99.90
13892;DHT22;7016;48.172;8.058;2024-01-27T03:12:45;4.40;99.90
13892;DHT22;7016;48.172;8.058;2024-01-27T03:15:31;4.30;99.90
13892;DHT22;7016;48.172;8.058;2024-01-27T03:18:18;4.30;99.90
13892;DHT22;7016;48.172;8.058;2024-01-27T03:21:06;4.40;99.90
13892;DHT22;7016;48.172;8.058;2024-01-27T03:23:52;4.40;99.90
13892;DHT22;7016;48.172;8.058;2024-01-27T03:26:38;4.30;99.90
13892;DHT22;7016;48.172;8.058;2024-01-27T03:29:24;4.30;99.90
13892;DHT22;7016;48.172;8.058;2024-01-27T03:32:11;4.30;99.90
13892;DHT22;7016;48.172;8.058;2024-01-27T03:35:00;4.00;99.90
13892;DHT22;7016;48.172;8.058;2024-01-27T03:37:46;4.00;99.90
13892;DHT22;7016;48.172;8.058;2024-01-27T03:40:33;4.10;99.90
13892;DHT22;7016;48.172;8.058;2024-01-27T03:43:19;4.20;99.90
13892;DHT22;7016;48.172;8.058;2024-01-27T03:46:05;4.20;99.90
13892;DHT22;7016;48.172;8.058;2024-01-27T03:48:51;4.20;99.90
13892;DHT22;7016;48.172;8.058;2024-01-27T03:51:37;4.10;99.90
13892;DHT22;7016;48.172;8.058;2024-01-27T03:54:23;4.20;99.90
13892;DHT22;7016;48.172;8.058;2024-01-27T03:57:10;4.20;99.90
13892;DHT22;7016;48.172;8.058;2024-01-27T03:59:56;4.20;99.90
13892;DHT22;7016;48.172;8.058;2024-01-27T04:02:42;4.30;99.90
13892;DHT22;7016;48.172;8.058;2024-01-27T04:05:29;4.10;99.90
13892;DHT22;7016;48.172;8.058;2024-01-27T04:08:16;4.00;99.90
13892;DHT22;7016;48.172;8.058;2024-01-27T04:11:02;3.90;99.90
13892;DHT22;7016;48.172;8.058;2024-01-27T04:13:49;3.90;99.90
13892;DHT22;7016;48.172;8.058;2024-01-27T04:16:38;3.90;99.90
13892;DHT22;7016;48.172;8.058;2024-01-27T04:19:25;4.00;99.90
13892;DHT22;7016;48.172;8.058;2024-01-27T04:22:11;3.90;99.90
13892;DHT22;7016;48.172;8.058;2024-01-27T04:24:58;3.70;99.90
13892;DHT22;7016;48.172;8.058;2024-01-27T04:27:44;3.70;99.90
13892;DHT22;7016;48.172;8.058;2024-01-27T04:30:30;3.80;99.90
13892;DHT22;7016;48.172;8.058;2024-01-27T04:33:16;4.40;99.90
13892;DHT22;7016;48.172;8.058;2024-01-27T04:36:03;3.90;99.90
13892;DHT22;7016;48.172;8.058;2024-01-27T04:38:49;3.90;99.90
13892;DHT22;7016;48.172;8.058;2024-01-27T04:41:41;3.90;99.90
13892;DHT22;7016;48.172;8.058;2024-01-27T04:44:28;3.90;99.90
13892;DHT22;7016;48.172;8.058;2024-01-27T04:47:14;3.80;99.90
13892;DHT22;7016;48.172;8.058;2024-01-27T04:50:01;3.80;99.90
13892;DHT22;7016;48.172;8.058;2024-01-27T04:52:47;3.80;99.90
13892;DHT22;7016;48.172;8.058;2024-01-27T04:55:33;3.50;99.90
13892;DHT22;7016;48.172;8.058;2024-01-27T04:58:19;3.50;99.90
13892;DHT22;7016;48.172;8.058;2024-01-27T05:01:06;3.60;99.90
13892;DHT22;7016;48.172;8.058;2024-01-27T05:03:52;3.70;99.90
13892;DHT22;7016;48.172;8.058;2024-01-27T05:06:43;3.80;99.90
13892;DHT22;7016;48.172;8.058;2024-01-27T05:09:29;3.70;99.90
13892;DHT22;7016;48.172;8.058;2024-01-27T05:12:15;3.60;99.90
13892;DHT22;7016;48.172;8.058;2024-01-27T05:15:02;3.50;99.90
13892;DHT22;7016;48.172;8.058;2024-01-27T05:17:48;3.40;99.90
13892;DHT22;7016;48.172;8.058;2024-01-27T05:20:34;3.40;99.90
13892;DHT22;7016;48.172;8.058;2024-01-27T05:23:20;3.50;99.90
13892;DHT22;7016;48.172;8.058;2024-01-27T05:26:06;3.30;99.90
13892;DHT22;7016;48.172;8.058;2024-01-27T05:28:53;3.30;99.90
13892;DHT22;7016;48.172;8.058;2024-01-27T05:31:39;3.30;99.90
13892;DHT22;7016;48.172;8.058;2024-01-27T05:34:29;3.40;99.90
13892;DHT22;7016;48.172;8.058;2024-01-27T05:37:15;3.40;99.90
13892;DHT22;7016;48.172;8.058;2024-01-27T05:40:01;3.40;99.90
13892;DHT22;7016;48.172;8.058;2024-01-27T05:42:49;3.40;99.90
13892;DHT22;7016;48.172;8.058;2024-01-27T05:45:36;3.30;99.90
13892;DHT22;7016;48.172;8.058;2024-01-27T05:48:22;3.40;99.90
13892;DHT22;7016;48.172;8.058;2024-01-27T05:51:09;3.40;99.90
13892;DHT22;7016;48.172;8.058;2024-01-27T05:53:55;3.40;99.90
13892;DHT22;7016;48.172;8.058;2024-01-27T05:56:41;3.60;99.90
13892;DHT22;7016;48.172;8.058;2024-01-27T05:59:27;3.80;99.90
13892;DHT22;7016;48.172;8.058;2024-01-27T06:02:13;3.70;99.90
13892;DHT22;7016;48.172;8.058;2024-01-27T06:05:00;3.70;99.90
13892;DHT22;7016;48.172;8.058;2024-01-27T06:07:46;3.80;99.90
13892;DHT22;7016;48.172;8.058;2024-01-27T06:10:34;3.70;99.90
13892;DHT22;7016;48.172;8.058;2024-01-27T06:13:22;3.80;99.90
13892;DHT22;7016;48.172;8.058;2024-01-27T06:16:09;3.70;99.90
13892;DHT22;7016;48.172;8.058;2024-01-27T06:18:55;3.70;99.90
13892;DHT22;7016;48.172;8.058;2024-01-27T06:21:42;3.70;99.90
13892;DHT22;7016;48.172;8.058;2024-01-27T06:24:28;3.70;99.90
13892;DHT22;7016;48.172;8.058;2024-01-27T06:27:14;3.80;99.90
13892;DHT22;7016;48.172;8.058;2024-01-27T06:30:00;3.80;99.90
13892;DHT22;7016;48.172;8.058;2024-01-27T06:32:47;3.80;99.90
13892;DHT22;7016;48.172;8.058;2024-01-27T06:35:33;3.80;99.90
13892;DHT22;7016;48.172;8.058;2024-01-27T06:38:19;3.80;99.90
13892;DHT22;7016;48.172;8.058;2024-01-27T06:41:05;3.80;99.90
13892;DHT22;7016;48.172;8.058;2024-01-27T06:43:52;3.90;99.90
13892;DHT22;7016;48.172;8.058;2024-01-27T06:46:38;3.90;99.90
13892;DHT22;7016;48.172;8.058;2024-01-27T06:49:24;3.90;99.90
13892;DHT22;7016;48.172;8.058;2024-01-27T06:52:10;3.80;99.90
13892;DHT22;7016;48.172;8.058;2024-01-27T06:54:58;3.70;99.90
13892;DHT22;7016;48.172;8.058;2024-01-27T06:57:44;3.70;99.90
13892;DHT22;7016;48.172;8.058;2024-01-27T07:00:30;3.80;99.90
13892;DHT22;7016;48.172;8.058;2024-01-27T07:03:16;4.00;99.90
13892;DHT22;7016;48.172;8.058;2024-01-27T07:06:03;3.90;99.90
13892;DHT22;7016;48.172;8.058;2024-01-27T07:08:49;3.90;99.90
13892;DHT22;7016;48.172;8.058;2024-01-27T07:11:36;3.90;99.90
13892;DHT22;7016;48.172;8.058;2024-01-27T07:14:22;3.90;99.90
13892;DHT22;7016;48.172;8.058;2024-01-27T07:17:09;4.00;99.90
13892;DHT22;7016;48.172;8.058;2024-01-27T07:19:55;4.00;99.90
13892;DHT22;7016;48.172;8.058;2024-01-27T07:22:41;4.00;99.90
13892;DHT22;7016;48.172;8.058;2024-01-27T07:25:28;3.90;99.90
13892;DHT22;7016;48.172;8.058;2024-01-27T07:28:15;3.80;99.90
13892;DHT22;7016;48.172;8.058;2024-01-27T07:31:05;3.80;99.90
13892;DHT22;7016;48.172;8.058;2024-01-27T07:33:53;3.80;99.90
13892;DHT22;7016;48.172;8.058;2024-01-27T07:36:40;3.70;99.90
13892;DHT22;7016;48.172;8.058;2024-01-27T07:39:26;3.80;99.90
13892;DHT22;7016;48.172;8.058;2024-01-27T07:42:13;3.70;99.90
13892;DHT22;7016;48.172;8.058;2024-01-27T07:44:59;3.60;99.90
13892;DHT22;7016;48.172;8.058;2024-01-27T07:47:45;3.70;99.90
13892;DHT22;7016;48.172;8.058;2024-01-27T07:50:31;3.80;99.90
13892;DHT22;7016;48.172;8.058;2024-01-27T07:53:17;3.70;99.90
13892;DHT22;7016;48.172;8.058;2024-01-27T07:56:04;3.90;99.90
13892;DHT22;7016;48.172;8.058;2024-01-27T07:58:51;4.00;99.90
13892;DHT22;7016;48.172;8.058;2024-01-27T08:01:37;4.00;99.90
13892;DHT22;7016;48.172;8.058;2024-01-27T08:04:23;4.00;99.90
13892;DHT22;7016;48.172;8.058;2024-01-27T08:07:09;4.00;99.90
13892;DHT22;7016;48.172;8.058;2024-01-27T08:09:55;4.00;99.90
13892;DHT22;7016;48.172;8.058;2024-01-27T08:12:43;3.90;99.90
13892;DHT22;7016;48.172;8.058;2024-01-27T08:15:29;3.80;99.90
13892;DHT22;7016;48.172;8.058;2024-01-27T08:18:15;3.80;99.90
13892;DHT22;7016;48.172;8.058;2024-01-27T08:21:02;3.80;99.90
13892;DHT22;7016;48.172;8.058;2024-01-27T08:23:49;3.80;99.90
13892;DHT22;7016;48.172;8.058;2024-01-27T08:26:35;3.80;99.90
13892;DHT22;7016;48.172;8.058;2024-01-27T08:29:21;4.00;99.90
13892;DHT22;7016;48.172;8.058;2024-01-27T08:32:07;4.00;99.90
13892;DHT22;7016;48.172;8.058;2024-01-27T08:34:53;4.00;99.90
13892;DHT22;7016;48.172;8.058;2024-01-27T08:37:40;3.90;99.90
13892;DHT22;7016;48.172;8.058;2024-01-27T08:40:26;3.90;99.90
13892;DHT22;7016;48.172;8.058;2024-01-27T08:43:12;3.90;99.90
13892;DHT22;7016;48.172;8.058;2024-01-27T08:45:58;4.00;99.90
13892;DHT22;7016;48.172;8.058;2024-01-27T08:48:46;4.10;99.90
13892;DHT22;7016;48.172;8.058;2024-01-27T08:51:32;3.90;99.90
13892;DHT22;7016;48.172;8.058;2024-01-27T08:54:18;4.20;99.90
13892;DHT22;7016;48.172;8.058;2024-01-27T08:57:05;4.20;99.90
13892;DHT22;7016;48.172;8.058;2024-01-27T08:59:51;4.30;99.90
13892;DHT22;7016;48.172;8.058;2024-01-27T09:02:37;4.30;99.90
13892;DHT22;7016;48.172;8.058;2024-01-27T09:05:23;4.30;99.90
13892;DHT22;7016;48.172;8.058;2024-01-27T09:08:10;4.30;99.90
13892;DHT22;7016;48.172;8.058;2024-01-27T09:10:56;4.20;99.90
13892;DHT22;7016;48.172;8.058;2024-01-27T09:13:42;4.20;99.90
13892;DHT22;7016;48.172;8.058;2024-01-27T09:16:30;4.20;99.90
13892;DHT22;7016;48.172;8.058;2024-01-27T09:19:16;4.30;99.90
13892;DHT22;7016;48.172;8.058;2024-01-27T09:22:03;4.40;99.90
13892;DHT22;7016;48.172;8.058;2024-01-27T09:24:50;4.40;99.90
13892;DHT22;7016;48.172;8.058;2024-01-27T09:27:36;4.40;99.90
13892;DHT22;7016;48.172;8.058;2024-01-27T09:30:23;4.40;99.90
13892;DHT22;7016;48.172;8.058;2024-01-27T09:33:09;4.50;99.90
13892;DHT22;7016;48.172;8.058;2024-01-27T09:35:55;4.50;99.90
13892;DHT22;7016;48.172;8.058;2024-01-27T09:38:41;4.40;99.90
13892;DHT22;7016;48.172;8.058;2024-01-27T09:41:30;4.20;99.90
13892;DHT22;7016;48.172;8.058;2024-01-27T09:44:18;4.30;99.90
13892;DHT22;7016;48.172;8.058;2024-01-27T09:47:07;4.30;99.90
13892;DHT22;7016;48.172;8.058;2024-01-27T09:49:54;4.40;99.90
13892;DHT22;7016;48.172;8.058;2024-01-27T09:52:43;4.20;99.90
13892;DHT22;7016;48.172;8.058;2024-01-27T09:55:33;3.30;99.90
13892;DHT22;7016;48.172;8.058;2024-01-27T09:58:19;4.10;99.90
13892;DHT22;7016;48.172;8.058;2024-01-27T10:01:07;4.20;99.90
13892;DHT22;7016;48.172;8.058;2024-01-27T10:03:54;4.10;99.90
13892;DHT22;7016;48.172;8.058;2024-01-27T10:06:41;4.10;99.90
13892;DHT22;7016;48.172;8.058;2024-01-27T10:09:27;4.10;99.90
13892;DHT22;7016;48.172;8.058;2024-01-27T10:12:14;4.10;99.90
13892;DHT22;7016;48.172;8.058;2024-01-27T10:15:01;4.20;99.90
13892;DHT22;7016;48.172;8.058;2024-01-27T10:17:49;4.20;99.90
13892;DHT22;7016;48.172;8.058;2024-01-27T10:20:35;4.50;99.90
13892;DHT22;7016;48.172;8.058;2024-01-27T10:23:21;4.70;99.90
13892;DHT22;7016;48.172;8.058;2024-01-27T10:26:11;4.80;99.90
13892;DHT22;7016;48.172;8.058;2024-01-27T10:28:57;4.80;99.90
13892;DHT22;7016;48.172;8.058;2024-01-27T10:31:44;5.00;99.90
13892;DHT22;7016;48.172;8.058;2024-01-27T10:34:30;5.00;99.90
13892;DHT22;7016;48.172;8.058;2024-01-27T10:37:23;5.00;99.90
13892;DHT22;7016;48.172;8.058;2024-01-27T10:40:09;5.00;99.90
13892;DHT22;7016;48.172;8.058;2024-01-27T10:43:07;5.00;99.90
13892;DHT22;7016;48.172;8.058;2024-01-27T10:45:53;4.90;99.90
13892;DHT22;7016;48.172;8.058;2024-01-27T10:48:42;4.90;99.90
13892;DHT22;7016;48.172;8.058;2024-01-27T10:51:31;4.90;99.90
13892;DHT22;7016;48.172;8.058;2024-01-27T10:54:26;5.10;99.90
13892;DHT22;7016;48.172;8.058;2024-01-27T10:57:13;5.10;99.90
13892;DHT22;7016;48.172;8.058;2024-01-27T11:00:02;5.00;99.90
13892;DHT22;7016;48.172;8.058;2024-01-27T11:02:54;4.80;99.90
13892;DHT22;7016;48.172;8.058;2024-01-27T11:05:47;5.10;99.90
13892;DHT22;7016;48.172;8.058;2024-01-27T11:08:34;5.40;99.90
13892;DHT22;7016;48.172;8.058;2024-01-27T11:11:23;5.30;99.90
13892;DHT22;7016;48.172;8.058;2024-01-27T11:14:10;5.60;99.90
13892;DHT22;7016;48.172;8.058;2024-01-27T11:16:57;5.60;99.90
13892;DHT22;7016;48.172;8.058;2024-01-27T11:19:47;5.70;99.90
13892;DHT22;7016;48.172;8.058;2024-01-27T11:22:33;5.70;99.90
13892;DHT22;7016;48.172;8.058;2024-01-27T11:25:19;6.00;99.90
13892;DHT22;7016;48.172;8.058;2024-01-27T11:28:13;5.90;99.90
13892;DHT22;7016;48.172;8.058;2024-01-27T11:31:07;5.90;99.90
13892;DHT22;7016;48.172;8.058;2024-01-27T11:33:54;5.70;99.90
13892;DHT22;7016;48.172;8.058;2024-01-27T11:36:40;5.50;99.90
13892;DHT22;7016;48.172;8.058;2024-01-27T11:39:29;5.60;99.90
13892;DHT22;7016;48.172;8.058;2024-01-27T11:42:17;5.70;99.90
13892;DHT22;7016;48.172;8.058;2024-01-27T11:45:03;5.70;99.90
13892;DHT22;7016;48.172;8.058;2024-01-27T11:47:50;5.70;99.90
13892;DHT22;7016;48.172;8.058;2024-01-27T11:50:36;5.90;99.90
13892;DHT22;7016;48.172;8.058;2024-01-27T11:53:23;6.30;99.90
13892;DHT22;7016;48.172;8.058;2024-01-27T11:56:09;6.40;99.90
13892;DHT22;7016;48.172;8.058;2024-01-27T11:58:56;6.40;99.90
13892;DHT22;7016;48.172;8.058;2024-01-27T12:01:42;6.30;99.90
13892;DHT22;7016;48.172;8.058;2024-01-27T12:04:29;6.40;99.90
13892;DHT22;7016;48.172;8.058;2024-01-27T12:07:15;6.40;99.90
13892;DHT22;7016;48.172;8.058;2024-01-27T12:10:05;6.40;99.90
13892;DHT22;7016;48.172;8.058;2024-01-27T12:12:52;6.70;99.90
13892;DHT22;7016;48.172;8.058;2024-01-27T12:15:38;6.70;99.90
13892;DHT22;7016;48.172;8.058;2024-01-27T12:18:24;7.00;99.90
13892;DHT22;7016;48.172;8.058;2024-01-27T12:21:10;7.10;99.90
13892;DHT22;7016;48.172;8.058;2024-01-27T12:23:58;7.00;99.90
13892;DHT22;7016;48.172;8.058;2024-01-27T12:26:45;6.80;99.90
13892;DHT22;7016;48.172;8.058;2024-01-27T12:29:33;6.90;99.90
13892;DHT22;7016;48.172;8.058;2024-01-27T12:32:19;7.00;99.90
13892;DHT22;7016;48.172;8.058;2024-01-27T12:35:06;7.30;99.90
13892;DHT22;7016;48.172;8.058;2024-01-27T12:37:53;7.40;99.90
13892;DHT22;7016;48.172;8.058;2024-01-27T12:40:39;7.30;99.90
13892;DHT22;7016;48.172;8.058;2024-01-27T12:43:26;7.40;99.90
13892;DHT22;7016;48.172;8.058;2024-01-27T12:46:12;7.30;99.90
13892;DHT22;7016;48.172;8.058;2024-01-27T12:49:00;7.50;99.90
13892;DHT22;7016;48.172;8.058;2024-01-27T12:51:47;7.60;99.90
13892;DHT22;7016;48.172;8.058;2024-01-27T12:54:34;7.60;99.90
13892;DHT22;7016;48.172;8.058;2024-01-27T12:57:20;7.60;99.90
13892;DHT22;7016;48.172;8.058;2024-01-27T13:00:07;7.80;99.90
13892;DHT22;7016;48.172;8.058;2024-01-27T13:02:56;8.00;99.90
13892;DHT22;7016;48.172;8.058;2024-01-27T13:05:42;8.10;99.90
13892;DHT22;7016;48.172;8.058;2024-01-27T13:08:28;8.10;99.90
13892;DHT22;7016;48.172;8.058;2024-01-27T13:11:17;8.20;99.90
13892;DHT22;7016;48.172;8.058;2024-01-27T13:14:03;8.30;99.90
13892;DHT22;7016;48.172;8.058;2024-01-27T13:16:51;8.40;99.90
13892;DHT22;7016;48.172;8.058;2024-01-27T13:19:40;8.40;99.90
13892;DHT22;7016;48.172;8.058;2024-01-27T13:22:26;8.40;99.90
13892;DHT22;7016;48.172;8.058;2024-01-27T13:25:12;8.40;99.90
13892;DHT22;7016;48.172;8.058;2024-01-27T13:27:59;8.50;99.90
13892;DHT22;7016;48.172;8.058;2024-01-27T13:30:45;8.60;99.90
13892;DHT22;7016;48.172;8.058;2024-01-27T13:33:31;8.60;99.90
13892;DHT22;7016;48.172;8.058;2024-01-27T13:36:18;8.50;99.90
13892;DHT22;7016;48.172;8.058;2024-01-27T13:39:04;8.50;99.90
13892;DHT22;7016;48.172;8.058;2024-01-27T13:41:50;8.50;99.90
13892;DHT22;7016;48.172;8.058;2024-01-27T13:44:37;8.50;99.90
13892;DHT22;7016;48.172;8.058;2024-01-27T13:47:23;8.50;99.90
13892;DHT22;7016;48.172;8.058;2024-01-27T13:50:09;8.60;99.90
13892;DHT22;7016;48.172;8.058;2024-01-27T13:52:55;8.70;99.90
13892;DHT22;7016;48.172;8.058;2024-01-27T13:55:41;8.60;99.90
13892;DHT22;7016;48.172;8.058;2024-01-27T13:58:30;8.50;99.90
13892;DHT22;7016;48.172;8.058;2024-01-27T14:01:16;8.70;99.90
13892;DHT22;7016;48.172;8.058;2024-01-27T14:04:02;8.80;99.90
13892;DHT22;7016;48.172;8.058;2024-01-27T14:06:48;8.80;99.90
13892;DHT22;7016;48.172;8.058;2024-01-27T14:09:35;8.90;99.90
13892;DHT22;7016;48.172;8.058;2024-01-27T14:12:21;8.90;99.90
13892;DHT22;7016;48.172;8.058;2024-01-27T14:15:08;8.90;99.90
13892;DHT22;7016;48.172;8.058;2024-01-27T14:17:55;8.90;99.90
13892;DHT22;7016;48.172;8.058;2024-01-27T14:20:41;9.00;99.90
13892;DHT22;7016;48.172;8.058;2024-01-27T14:23:27;9.00;99.90
13892;DHT22;7016;48.172;8.058;2024-01-27T14:26:14;8.70;99.90
13892;DHT22;7016;48.172;8.058;2024-01-27T14:29:00;8.70;99.90
13892;DHT22;7016;48.172;8.058;2024-01-27T14:31:47;8.70;99.90
13892;DHT22;7016;48.172;8.058;2024-01-27T14:34:33;8.80;99.90
13892;DHT22;7016;48.172;8.058;2024-01-27T14:37:19;8.80;99.90
13892;DHT22;7016;48.172;8.058;2024-01-27T14:40:05;8.90;99.90
13892;DHT22;7016;48.172;8.058;2024-01-27T14:42:52;9.00;99.90
13892;DHT22;7016;48.172;8.058;2024-01-27T14:45:38;9.00;99.90
13892;DHT22;7016;48.172;8.058;2024-01-27T14:48:25;9.00;99.90
13892;DHT22;7016;48.172;8.058;2024-01-27T14:51:11;9.00;99.90
13892;DHT22;7016;48.172;8.058;2024-01-27T14:53:58;8.90;99.90
13892;DHT22;7016;48.172;8.058;2024-01-27T14:56:49;8.70;99.90
13892;DHT22;7016;48.172;8.058;2024-01-27T14:59:36;8.60;99.90
13892;DHT22;7016;48.172;8.058;2024-01-27T15:02:24;8.50;99.90
13892;DHT22;7016;48.172;8.058;2024-01-27T15:05:11;8.70;99.90
13892;DHT22;7016;48.172;8.058;2024-01-27T15:07:57;8.80;99.90
13892;DHT22;7016;48.172;8.058;2024-01-27T15:10:44;8.90;99.90
13892;DHT22;7016;48.172;8.058;2024-01-27T15:13:30;8.80;99.90
13892;DHT22;7016;48.172;8.058;2024-01-27T15:16:16;8.60;99.90
13892;DHT22;7016;48.172;8.058;2024-01-27T15:19:03;8.40;99.90
13892;DHT22;7016;48.172;8.058;2024-01-27T15:21:49;8.30;99.90
13892;DHT22;7016;48.172;8.058;2024-01-27T15:24:35;8.40;99.90
13892;DHT22;7016;48.172;8.058;2024-01-27T15:27:23;8.50;99.90
13892;DHT22;7016;48.172;8.058;2024-01-27T15:30:10;8.30;99.90
13892;DHT22;7016;48.172;8.058;2024-01-27T15:32:56;8.00;99.90
13892;DHT22;7016;48.172;8.058;2024-01-27T15:35:42;8.00;99.90
13892;DHT22;7016;48.172;8.058;2024-01-27T15:38:29;8.10;99.90
13892;DHT22;7016;48.172;8.058;2024-01-27T15:41:15;8.10;99.90
13892;DHT22;7016;48.172;8.058;2024-01-27T15:44:04;7.90;99.90
13892;DHT22;7016;48.172;8.058;2024-01-27T15:46:50;7.80;99.90
13892;DHT22;7016;48.172;8.058;2024-01-27T15:49:36;7.90;99.90
13892;DHT22;7016;48.172;8.058;2024-01-27T15:52:23;7.80;99.90
13892;DHT22;7016;48.172;8.058;2024-01-27T15:55:09;7.90;99.90
13892;DHT22;7016;48.172;8.058;2024-01-27T15:57:56;7.90;99.90
13892;DHT22;7016;48.172;8.058;2024-01-27T16:00:42;7.80;99.90
13892;DHT22;7016;48.172;8.058;2024-01-27T16:03:28;7.60;99.90
13892;DHT22;7016;48.172;8.058;2024-01-27T16:06:14;7.40;99.90
13892;DHT22;7016;48.172;8.058;2024-01-27T16:09:00;7.30;99.90
13892;DHT22;7016;48.172;8.058;2024-01-27T16:11:47;7.30;99.90
13892;DHT22;7016;48.172;8.058;2024-01-27T16:14:33;7.50;99.90
13892;DHT22;7016;48.172;8.058;2024-01-27T16:17:20;7.50;99.90
13892;DHT22;7016;48.172;8.058;2024-01-27T16:20:07;7.50;99.90
13892;DHT22;7016;48.172;8.058;2024-01-27T16:22:54;7.30;99.90
13892;DHT22;7016;48.172;8.058;2024-01-27T16:25:40;7.00;99.90
13892;DHT22;7016;48.172;8.058;2024-01-27T16:28:26;7.00;99.90
13892;DHT22;7016;48.172;8.058;2024-01-27T16:31:14;7.00;99.90
13892;DHT22;7016;48.172;8.058;2024-01-27T16:34:00;6.90;99.90
13892;DHT22;7016;48.172;8.058;2024-01-27T16:36:46;6.90;99.90
13892;DHT22;7016;48.172;8.058;2024-01-27T16:39:33;6.90;99.90
13892;DHT22;7016;48.172;8.058;2024-01-27T16:42:19;6.90;99.90
13892;DHT22;7016;48.172;8.058;2024-01-27T16:45:06;6.80;99.90
13892;DHT22;7016;48.172;8.058;2024-01-27T16:47:53;6.80;99.90
13892;DHT22;7016;48.172;8.058;2024-01-27T16:50:43;6.70;99.90
13892;DHT22;7016;48.172;8.058;2024-01-27T16:53:29;6.70;99.90
13892;DHT22;7016;48.172;8.058;2024-01-27T16:56:16;6.50;99.90
13892;DHT22;7016;48.172;8.058;2024-01-27T16:59:03;6.60;99.90
13892;DHT22;7016;48.172;8.058;2024-01-27T17:01:50;6.50;99.90
13892;DHT22;7016;48.172;8.058;2024-01-27T17:04:37;6.30;99.90
13892;DHT22;7016;48.172;8.058;2024-01-27T17:07:25;6.40;99.90
13892;DHT22;7016;48.172;8.058;2024-01-27T17:10:11;6.50;99.90
13892;DHT22;7016;48.172;8.058;2024-01-27T17:12:57;6.40;99.90
13892;DHT22;7016;48.172;8.058;2024-01-27T17:15:44;6.40;99.90
13892;DHT22;7016;48.172;8.058;2024-01-27T17:18:31;6.30;99.90
13892;DHT22;7016;48.172;8.058;2024-01-27T17:21:18;6.20;99.90
13892;DHT22;7016;48.172;8.058;2024-01-27T17:24:08;6.10;99.90
13892;DHT22;7016;48.172;8.058;2024-01-27T17:26:54;6.10;99.90
13892;DHT22;7016;48.172;8.058;2024-01-27T17:29:40;6.00;99.90
13892;DHT22;7016;48.172;8.058;2024-01-27T17:32:26;6.10;99.90
13892;DHT22;7016;48.172;8.058;2024-01-27T17:35:13;6.10;99.90
13892;DHT22;7016;48.172;8.058;2024-01-27T17:37:59;6.10;99.90
13892;DHT22;7016;48.172;8.058;2024-01-27T17:40:45;6.10;99.90
13892;DHT22;7016;48.172;8.058;2024-01-27T17:43:32;6.20;99.90
13892;DHT22;7016;48.172;8.058;2024-01-27T17:46:19;6.10;99.90
13892;DHT22;7016;48.172;8.058;2024-01-27T17:49:06;6.10;99.90
13892;DHT22;7016;48.172;8.058;2024-01-27T17:51:53;6.10;99.90
13892;DHT22;7016;48.172;8.058;2024-01-27T17:54:39;6.10;99.90
13892;DHT22;7016;48.172;8.058;2024-01-27T17:57:27;6.10;99.90
13892;DHT22;7016;48.172;8.058;2024-01-27T18:00:15;6.00;99.90
13892;DHT22;7016;48.172;8.058;2024-01-27T18:03:03;5.90;99.90
13892;DHT22;7016;48.172;8.058;2024-01-27T18:05:49;5.90;99.90
13892;DHT22;7016;48.172;8.058;2024-01-27T18:08:35;5.90;99.90